Time;durP1;ratioP1;P1;durP2;ratioP2;P2;SDS_P1;SDS_P2;PMS_P1;PMS_P2;Temp;Humidity;BMP_temperature;BMP_pressure;BME280_temperature;BME280_humidity;BME280_pressure;Samples;Min_cycle;Max_cycle;Signal;HPM_P1;HPM_P2
2021/10/28 00:12:20;;;;;;;16.63;8.52;;;12.90;99.90;;;11.59;100.00;101742.16;4997932;28;20042;-79
2021/10/28 00:14:52;;;;;;;12.82;8.57;;;12.90;99.90;;;11.54;100.00;101736.19;4984538;28;20022;-79
2021/10/28 00:17:24;;;;;;;15.27;9.63;;;12.80;99.90;;;11.59;100.00;101734.25;4974019;28;20494;-79
2021/10/28 00:19:50;;;;;;;16.35;9.82;;;12.80;99.90;;;11.54;100.00;101715.09;4995876;28;20119;-79
2021/10/28 00:22:16;;;;;;;17.02;9.45;;;12.80;99.90;;;11.50;100.00;101708.19;4995776;28;20523;-79
2021/10/28 00:24:41;;;;;;;;;;;12.80;99.90;;;11.53;100.00;101705.44;4980804;28;20037;-78
2021/10/28 00:27:08;;;;;;;14.35;9.32;;;12.80;99.90;;;11.50;100.00;101710.84;4982052;28;19961;-78
2021/10/28 00:29:34;;;;;;;17.80;10.40;;;12.80;99.90;;;11.52;100.00;101706.38;4958030;28;20113;-78
2021/10/28 00:32:00;;;;;;;19.80;10.02;;;12.80;99.90;;;11.56;100.00;101710.63;4970465;28;20045;-78
2021/10/28 00:34:26;;;;;;;16.10;9.63;;;12.80;99.90;;;11.55;100.00;101702.75;5009120;28;20425;-79
2021/10/28 00:36:53;;;;;;;17.13;10.02;;;12.80;99.90;;;11.57;100.00;101709.69;4973671;28;20064;-79
2021/10/28 00:39:19;;;;;;;17.02;10.20;;;12.90;99.90;;;11.58;100.00;101700.88;4983282;28;20044;-78
2021/10/28 00:41:45;;;;;;;17.52;9.85;;;12.90;99.90;;;11.59;100.00;101694.69;4975102;28;20064;-78
2021/10/28 00:44:12;;;;;;;17.08;10.70;;;12.90;99.90;;;11.57;100.00;101695.66;4974696;28;20062;-78
2021/10/28 00:46:40;;;;;;;17.00;10.40;;;12.90;99.90;;;11.56;100.00;101686.88;4983176;28;20038;-78
2021/10/28 00:49:10;;;;;;;14.63;10.15;;;12.90;99.90;;;11.56;100.00;101691.31;4966765;28;20045;-78
2021/10/28 00:51:38;;;;;;;21.20;10.45;;;12.90;99.90;;;11.56;100.00;101692.16;4973602;28;20501;-78
2021/10/28 00:54:06;;;;;;;18.27;11.35;;;12.90;99.90;;;11.55;100.00;101682.50;4968691;28;20023;-78
2021/10/28 00:56:33;;;;;;;18.20;10.73;;;12.90;99.90;;;11.61;100.00;101692.00;4983183;28;20460;-78
2021/10/28 00:59:02;;;;;;;14.57;9.95;;;12.90;99.90;;;11.63;100.00;101693.66;4989434;28;20398;-78
2021/10/28 01:01:32;;;;;;;18.27;10.05;;;12.90;99.90;;;11.62;100.00;101688.44;4969256;28;20145;-78
2021/10/28 01:03:58;;;;;;;22.88;10.65;;;12.90;99.90;;;11.58;100.00;101684.22;4989939;28;20440;-78
2021/10/28 01:06:24;;;;;;;15.43;9.65;;;12.80;99.90;;;11.57;100.00;101679.81;4961312;28;20049;-78
2021/10/28 01:08:51;;;;;;;16.90;10.30;;;12.90;99.90;;;11.54;100.00;101672.88;4974522;28;20062;-78
2021/10/28 01:11:19;;;;;;;14.35;9.50;;;12.90;99.90;;;11.54;100.00;101667.63;4985349;28;22327;-78
2021/10/28 01:13:45;;;;;;;15.65;9.52;;;12.80;99.90;;;11.55;100.00;101669.31;4982303;28;20022;-78
2021/10/28 01:16:12;;;;;;;16.45;9.48;;;12.80;99.90;;;11.54;100.00;101670.25;4981677;28;20038;-78
2021/10/28 01:18:39;;;;;;;16.20;9.80;;;12.80;99.90;;;11.53;100.00;101671.16;4989473;28;20432;-78
2021/10/28 01:21:08;;;;;;;15.48;10.20;;;12.80;99.90;;;11.52;100.00;101672.09;4982098;28;20124;-78
2021/10/28 01:23:38;;;;;;;15.50;9.88;;;12.80;99.90;;;11.52;100.00;101668.59;4989126;28;20041;-78
2021/10/28 01:26:09;;;;;;;14.32;9.70;;;12.80;99.90;;;11.49;100.00;101672.19;4975428;28;20076;-78
2021/10/28 01:28:39;;;;;;;16.50;9.27;;;12.80;99.90;;;11.50;100.00;101672.13;4981936;28;20465;-78
2021/10/28 01:31:10;;;;;;;18.77;10.35;;;12.80;99.90;;;11.49;100.00;101673.06;4933079;28;20113;-78
2021/10/28 01:33:39;;;;;;;18.90;10.70;;;12.80;99.90;;;11.52;100.00;101664.16;4957696;28;21469;-79
2021/10/28 01:36:05;;;;;;;19.92;10.60;;;12.80;99.90;;;11.50;100.00;101664.22;4981741;28;20072;-79
2021/10/28 01:38:36;;;;;;;;;;;12.80;99.90;;;11.48;100.00;101663.41;5004007;28;20036;-78
2021/10/28 01:41:04;;;;;;;15.55;9.82;;;12.70;99.90;;;11.43;100.00;101662.72;4968318;28;19989;-79
2021/10/28 01:43:33;;;;;;;21.30;10.90;;;12.70;99.90;;;11.44;100.00;101664.44;4977321;28;20731;-78
2021/10/28 01:46:02;;;;;;;15.70;9.95;;;12.70;99.90;;;11.44;100.00;101663.56;5008035;28;20061;-78
2021/10/28 01:48:29;;;;;;;18.55;10.18;;;12.70;99.90;;;11.40;100.00;101657.56;4979206;28;20136;-78
2021/10/28 01:50:55;;;;;;;17.52;10.95;;;12.70;99.90;;;11.40;100.00;101660.19;4982412;28;20035;-78
2021/10/28 01:53:22;;;;;;;18.42;10.40;;;12.70;99.90;;;11.39;100.00;101657.59;4981554;28;20497;-78
2021/10/28 01:55:49;;;;;;;19.73;10.85;;;12.70;99.90;;;11.40;100.00;101656.69;4964743;28;20019;-78
2021/10/28 01:58:22;;;;;;;17.35;9.82;;;12.70;99.90;;;11.39;100.00;101657.59;4976964;28;20202;-78
2021/10/28 02:00:49;;;;;;;15.60;10.30;;;12.70;99.90;;;11.39;100.00;101652.34;4972747;28;20057;-78
2021/10/28 02:03:15;;;;;;;20.42;11.10;;;12.70;99.90;;;11.37;100.00;101648.91;4979491;28;20080;-78
2021/10/28 02:05:41;;;;;;;18.77;11.02;;;12.60;99.90;;;11.35;100.00;101645.44;4990614;28;20057;-78
2021/10/28 02:08:07;;;;;;;;;;;12.60;99.90;;;11.36;100.00;101642.75;4980017;28;20022;-78
2021/10/28 02:10:33;;;;;;;18.55;10.50;;;12.70;99.90;;;11.37;100.00;101643.63;4949324;28;19951;-78
2021/10/28 02:13:00;;;;;;;;;;;12.60;99.90;;;11.37;100.00;101644.47;4981906;28;20060;-78
2021/10/28 02:15:26;;;;;;;21.17;9.40;;;12.60;99.90;;;11.34;100.00;101641.06;4958066;28;19905;-79
2021/10/28 02:17:52;;;;;;;17.70;9.93;;;12.60;99.90;;;11.38;100.00;101646.22;4996023;28;20387;-78
2021/10/28 02:20:19;;;;;;;18.70;10.98;;;12.60;99.90;;;11.31;100.00;101633.28;4983616;28;20017;-78
2021/10/28 02:22:47;;;;;;;20.70;11.00;;;12.60;99.90;;;11.29;100.00;101633.31;4979288;28;20037;-78
2021/10/28 02:25:17;;;;;;;17.23;10.35;;;12.60;99.90;;;11.31;100.00;101634.13;4977069;28;20091;-78
2021/10/28 02:27:43;;;;;;;19.83;10.65;;;12.60;99.90;;;11.29;100.00;101634.22;4997872;28;20075;-78
2021/10/28 02:30:11;;;;;;;;;;;12.60;99.90;;;11.32;100.00;101629.72;4982312;28;20539;-78
2021/10/28 02:32:38;;;;;;;20.70;10.13;;;12.60;99.90;;;11.29;100.00;101626.31;4974131;28;19917;-78
2021/10/28 02:35:05;;;;;;;17.17;10.55;;;12.60;99.90;;;11.31;100.00;101631.50;4981838;28;20122;-78
2021/10/28 02:37:32;;;;;;;25.02;10.23;;;12.60;99.90;;;11.32;100.00;101627.06;4996487;28;20490;-78
2021/10/28 02:39:58;;;;;;;16.77;10.15;;;12.60;99.90;;;11.30;100.00;101627.16;4972529;28;20118;-78
2021/10/28 02:42:24;;;;;;;20.83;11.20;;;12.60;99.90;;;11.30;100.00;101627.16;4990191;28;20022;-78
2021/10/28 02:44:50;;;;;;;;;;;12.60;99.90;;;11.31;100.00;101633.28;4974476;28;20655;-79
2021/10/28 02:47:16;;;;;;;17.73;9.95;;;12.60;99.90;;;11.28;100.00;101621.06;4985301;28;19949;-78
2021/10/28 02:49:43;;;;;;;21.25;10.15;;;12.60;99.90;;;11.28;100.00;101619.28;4984623;28;20056;-78
2021/10/28 02:52:10;;;;;;;20.05;9.93;;;12.60;99.90;;;11.26;100.00;101607.94;4959387;28;20026;-78
2021/10/28 02:54:38;;;;;;;18.73;10.48;;;12.60;99.90;;;11.24;100.00;101608.91;4980741;28;20064;-78
2021/10/28 02:57:06;;;;;;;22.90;11.05;;;12.60;99.90;;;11.26;100.00;101610.56;4995286;28;20129;-78
2021/10/28 02:59:34;;;;;;;19.77;10.20;;;12.60;99.90;;;11.28;100.00;101613.16;4980380;28;20112;-78
2021/10/28 03:02:00;;;;;;;18.10;10.90;;;12.50;99.90;;;11.26;100.00;101605.31;4980065;28;20143;-78
2021/10/28 03:04:26;;;;;;;17.90;10.38;;;12.50;99.90;;;11.20;100.00;101596.75;4972693;28;20168;-78
2021/10/28 03:06:54;;;;;;;21.50;10.15;;;12.50;99.90;;;11.20;100.00;101597.59;4974372;28;20474;-78
2021/10/28 03:09:24;;;;;;;15.65;10.52;;;12.50;99.90;;;11.19;100.00;101598.53;4984097;28;20042;-78
2021/10/28 03:11:56;;;;;;;20.63;10.05;;;12.50;99.90;;;11.20;100.00;101594.97;5000795;28;20522;-78
2021/10/28 03:14:32;;;;;;;23.48;11.18;;;12.50;99.90;;;11.18;100.00;101599.44;4993563;28;20210;-78
2021/10/28 03:27:44;;;;;;;22.67;10.02;;;12.40;99.90;;;11.09;100.00;101597.97;5011337;28;20068;-78
2021/10/28 03:30:11;;;;;;;17.95;10.68;;;12.40;99.90;;;11.14;100.00;101605.72;4984352;28;20135;-78
2021/10/28 03:32:38;;;;;;;19.10;10.63;;;12.40;99.90;;;11.14;100.00;101599.59;4984642;28;20075;-78
2021/10/28 03:35:09;;;;;;;16.73;9.43;;;12.40;99.90;;;11.05;100.00;101566.53;4977482;28;20078;-78
2021/10/28 03:37:41;;;;;;;21.67;10.25;;;12.30;99.90;;;10.99;100.00;101632.59;4961263;28;20599;-78
2021/10/28 04:17:21;;;;;;;16.40;8.02;;;11.50;99.90;;;10.10;100.00;101590.69;4998514;28;20523;-78
2021/10/28 04:30:45;;;;;;;15.95;7.32;;;11.10;99.90;;;9.69;100.00;101584.91;4998694;28;20108;-78
2021/10/28 04:33:12;;;;;;;;;;;11.00;99.90;;;9.60;100.00;101584.25;4968851;28;20056;-79
2021/10/28 04:35:38;;;;;;;15.32;7.82;;;10.90;99.90;;;9.59;100.00;101593.06;4967455;28;19948;-78
2021/10/28 04:38:04;;;;;;;;;;;10.90;99.90;;;9.50;100.00;101587.19;4961410;28;20074;-78
2021/10/28 04:40:30;;;;;;;18.75;8.10;;;10.80;99.90;;;9.39;100.00;101580.47;4990473;28;20325;-79
2021/10/28 04:42:55;;;;;;;;;;;10.80;99.90;;;9.33;100.00;101579.78;4965533;28;20073;-79
2021/10/28 04:45:22;;;;;;;13.60;7.22;;;10.70;99.90;;;9.26;100.00;101597.47;4958748;28;20419;-79
2021/10/28 04:47:47;;;;;;;16.38;7.93;;;10.60;99.90;;;9.21;100.00;101525.81;4990008;28;20064;-78
2021/10/28 04:50:13;;;;;;;;;;;10.60;99.90;;;9.20;100.00;101569.63;4990513;28;20132;-78
2021/10/28 04:52:39;;;;;;;17.35;7.85;;;10.60;99.90;;;9.14;100.00;101575.03;4963469;28;20022;-78
2021/10/28 04:55:05;;;;;;;;;;;10.50;99.90;;;9.12;100.00;101605.75;4973266;28;20059;-79
2021/10/28 04:57:31;;;;;;;16.77;6.78;;;10.50;99.90;;;9.10;100.00;101617.19;4971360;28;19994;-78
2021/10/28 04:59:57;;;;;;;;;;;10.50;99.90;;;9.03;100.00;101603.38;5000710;28;20113;-78
2021/10/28 05:02:23;;;;;;;17.52;6.90;;;10.40;99.90;;;8.96;100.00;101602.66;4957607;28;20309;-79
2021/10/28 05:04:49;;;;;;;;;;;10.30;99.90;;;8.90;100.00;101597.56;4996035;28;20072;-78
2021/10/28 05:07:15;;;;;;;12.73;7.43;;;10.30;99.90;;;8.89;100.00;101615.97;4980113;28;19956;-78
2021/10/28 05:09:41;;;;;;;;;;;10.30;99.90;;;8.88;100.00;101606.41;4972282;28;20503;-78
2021/10/28 05:12:10;;;;;;;14.65;6.57;;;10.20;99.90;;;8.79;100.00;101597.84;4958316;28;19950;-79
2021/10/28 05:14:36;;;;;;;15.18;7.05;;;10.20;99.90;;;8.76;100.00;101605.78;4980415;28;20077;-78
2021/10/28 05:17:02;;;;;;;;;;;10.10;99.90;;;8.71;100.00;101602.41;4974377;28;20070;-78
2021/10/28 05:19:30;;;;;;;24.10;7.55;;;10.10;99.90;;;8.67;100.00;101592.88;4985752;28;19951;-78
2021/10/28 05:21:56;;;;;;;16.67;7.53;;;10.00;99.90;;;8.63;100.00;101591.22;4989211;28;20062;-78
2021/10/28 05:24:22;;;;;;;;;;;10.00;99.90;;;8.59;100.00;101598.31;5001711;28;20061;-78
2021/10/28 05:26:51;;;;;;;14.10;7.13;;;10.00;99.90;;;8.58;100.00;101616.75;4958184;28;19954;-79
2021/10/28 05:29:17;;;;;;;13.40;7.22;;;10.00;99.90;;;8.62;100.00;101615.78;4983520;28;20143;-78
2021/10/28 05:31:42;;;;;;;;;;;10.10;99.90;;;8.64;100.00;101613.97;4995950;28;20452;-78
2021/10/28 05:34:09;;;;;;;12.65;6.85;;;10.10;99.90;;;8.67;100.00;101602.53;4975944;28;19935;-79
2021/10/28 05:36:35;;;;;;;18.35;7.22;;;10.10;99.90;;;8.62;100.00;101600.03;4977486;28;20123;-78
2021/10/28 05:39:01;;;;;;;;;;;10.00;99.90;;;8.60;100.00;101604.44;4970603;28;20570;-78
2021/10/28 05:41:28;;;;;;;13.55;6.88;;;10.00;99.90;;;8.61;100.00;101593.88;4958468;28;19950;-78
2021/10/28 05:43:54;;;;;;;11.85;6.75;;;9.90;99.90;;;8.51;100.00;101584.53;4966663;28;20542;-78
2021/10/28 05:46:20;;;;;;;12.93;7.22;;;9.90;99.90;;;8.44;100.00;101577.69;4952318;28;20525;-78
2021/10/28 05:48:46;;;;;;;;;;;9.80;99.90;;;8.32;100.00;101565.69;4973422;28;20096;-78
2021/10/28 05:51:12;;;;;;;11.82;6.68;;;9.70;99.90;;;8.24;100.00;101558.91;4972465;28;19945;-79
2021/10/28 05:53:39;;;;;;;16.17;7.03;;;9.70;99.90;;;8.22;100.00;101558.94;4974073;28;20064;-78
2021/10/28 05:56:05;;;;;;;14.63;6.95;;;9.60;99.90;;;8.20;100.00;101563.34;4984877;28;20542;-78
2021/10/28 05:58:31;;;;;;;;;;;9.60;99.90;;;8.21;100.00;101570.34;4973554;28;20034;-78
2021/10/28 06:01:01;;;;;;;13.10;6.95;;;9.60;99.90;;;8.17;100.00;101564.31;4975324;28;20009;-78
2021/10/28 06:03:31;;;;;;;12.20;6.63;;;9.60;99.90;;;8.12;100.00;101566.19;4991360;28;20072;-78
2021/10/28 06:05:57;;;;;;;11.07;6.57;;;9.50;99.90;;;8.11;100.00;101574.06;4968470;28;20076;-79
2021/10/28 06:08:26;;;;;;;;;;;9.50;99.90;;;8.08;100.00;101572.38;4992805;28;20068;-79
2021/10/28 06:10:52;;;;;;;15.50;5.95;;;9.50;99.90;;;8.09;100.00;101581.13;4970833;28;20308;-79
2021/10/28 06:13:18;;;;;;;;;;;9.50;99.90;;;8.12;100.00;101591.53;4975929;28;20342;-78
2021/10/28 06:15:43;;;;;;;13.50;5.97;;;9.50;99.90;;;8.12;100.00;101581.91;4977693;28;19944;-78
2021/10/28 06:20:42;;;;;;;14.43;6.43;;;9.50;99.90;;;8.13;100.00;101582.78;4980391;28;20320;-79
2021/10/28 06:23:08;;;;;;;15.52;6.57;;;9.50;99.90;;;8.18;100.00;101607.13;4971768;28;20063;-78
2021/10/28 06:25:34;;;;;;;12.60;6.50;;;9.60;99.90;;;8.20;100.00;101603.56;4994734;28;20053;-78
2021/10/28 06:28:05;;;;;;;17.38;7.03;;;9.60;99.90;;;8.16;100.00;101616.78;4989264;28;20076;-79
2021/10/28 06:30:33;;;;;;;14.70;7.05;;;9.60;99.90;;;8.18;100.00;101630.75;4998011;28;20060;-78
2021/10/28 06:33:03;;;;;;;11.00;6.40;;;9.60;99.90;;;8.22;100.00;101637.66;4985064;28;20532;-78
2021/10/28 06:35:29;;;;;;;14.73;6.30;;;9.70;99.90;;;8.27;100.00;101656.81;4950249;28;20416;-79
2021/10/28 06:37:55;;;;;;;11.95;6.70;;;9.70;99.90;;;8.34;100.00;101662.78;4965211;28;20115;-78
2021/10/28 06:40:25;;;;;;;11.05;6.47;;;9.70;99.90;;;8.40;100.00;101675.72;4997274;28;20530;-78
2021/10/28 06:42:52;;;;;;;14.38;6.65;;;9.80;99.90;;;8.43;100.00;101672.22;4969117;28;20081;-78
2021/10/28 06:45:20;;;;;;;18.88;7.28;;;9.80;99.90;;;8.43;100.00;101673.09;4984353;28;20112;-79
2021/10/28 06:47:46;;;;;;;17.75;7.40;;;9.80;99.90;;;8.55;100.00;101687.69;4963196;28;20431;-79
2021/10/28 06:50:16;;;;;;;19.40;7.50;;;9.80;99.90;;;8.58;100.00;101687.63;4974675;28;20064;-78
2021/10/28 06:52:51;;;;;;;14.73;7.13;;;9.90;99.90;;;8.67;100.00;101703.16;4996675;28;20499;-79
2021/10/28 07:03:28;;;;;;;17.75;7.07;;;11.20;99.90;;;11.06;100.00;101874.84;4995855;28;20059;-79
2021/10/28 07:06:08;;;;;;;13.20;7.40;;;12.30;99.90;;;12.52;100.00;101912.25;4982361;28;20155;-79
2021/10/28 07:08:37;;;;;;;7.65;4.50;;;13.30;99.90;;;13.12;89.67;101775.19;4999247;28;20058;-79
2021/10/28 07:11:10;;;;;;;5.38;3.90;;;13.50;99.90;;;12.73;87.96;102129.13;4981469;28;20077;-79
2021/10/28 07:13:38;;;;;;;5.55;3.70;;;13.20;99.90;;;12.02;90.87;102110.25;4973591;28;20057;-79
2021/10/28 07:16:22;;;;;;;9.73;4.10;;;12.70;99.90;;;11.41;94.17;102069.81;4969353;28;20139;-79
2021/10/28 07:19:01;;;;;;;9.38;4.57;;;12.10;99.90;;;10.81;98.09;102059.13;4963740;28;20459;-79
2021/10/28 08:18:24;;;;;;;16.27;6.60;;;11.70;99.90;;;10.40;100.00;101845.13;4999742;28;20064;-81
2021/10/28 08:21:10;;;;;;;9.93;5.57;;;11.60;99.90;;;10.38;100.00;101846.94;4987874;28;20424;-79
2021/10/28 08:23:58;;;;;;;11.63;5.50;;;11.60;99.90;;;10.34;100.00;101845.31;4976213;28;20033;-80
2021/10/28 08:29:45;;;;;;;18.80;6.90;;;11.70;99.90;;;10.48;100.00;101851.97;4985359;28;20067;-80
2021/10/28 08:32:06;;;;;;;10.70;4.97;;;11.70;99.90;;;10.51;100.00;101847.47;4983218;28;20528;-81
2021/10/28 08:34:36;;;;;;;10.88;5.93;;;11.80;99.90;;;10.60;100.00;101856.88;4982692;28;20044;-80
2021/10/28 08:37:15;;;;;;;13.77;6.00;;;12.00;99.90;;;10.99;100.00;101872.44;4988478;28;20064;-80
2021/10/28 08:39:44;;;;;;;7.97;4.75;;;12.50;99.90;;;12.03;100.00;101961.50;4993056;28;20018;-80
2021/10/28 08:42:14;;;;;;;9.00;4.97;;;13.30;99.90;;;13.57;93.88;102045.94;4971046;28;20453;-79
2021/10/28 08:44:49;;;;;;;10.25;5.10;;;14.60;99.90;;;15.58;81.80;102148.09;4997416;28;20121;-80
2021/10/28 08:47:17;;;;;;;7.07;4.03;;;15.80;99.90;;;17.21;73.57;102213.00;4998451;28;20076;-80
2021/10/28 08:49:53;;;;;;;8.85;4.10;;;16.70;99.90;;;18.17;67.15;102238.16;5000411;28;20022;-80
2021/10/28 09:25:56;;;;;;;7.82;4.55;;;19.40;99.90;;;20.59;55.06;102082.84;4941714;28;20116;-80
2021/10/28 09:29:13;;;;;;;6.63;4.10;;;19.10;99.90;;;20.08;56.86;101999.75;4943173;28;20042;-80
2021/10/28 09:32:38;;;;;;;9.23;4.35;;;18.60;99.90;;;18.86;60.55;101931.91;4934152;28;20155;-80
2021/10/28 09:35:51;;;;;;;8.68;4.90;;;18.20;99.90;;;17.98;63.61;101864.34;4940295;28;20120;-80
2021/10/28 09:48:07;;;;;;;8.05;5.05;;;16.60;99.90;;;15.03;76.12;101715.50;4941141;28;20057;-80
2021/10/28 09:51:08;;;;;;;7.28;4.50;;;15.70;99.90;;;14.26;79.64;101708.56;4950965;28;20393;-80
2021/10/28 09:58:07;;;;;;;8.90;4.38;;;14.90;99.90;;;13.54;84.45;101667.66;4943706;28;20039;-80
2021/10/28 10:00:57;;;;;;;10.52;4.93;;;14.50;99.90;;;13.45;86.69;101670.72;4941184;28;20074;-80
2021/10/28 10:04:06;;;;;;;8.13;4.32;;;14.40;99.90;;;13.46;87.47;101675.94;4923730;28;20097;-81
2021/10/28 10:07:23;;;;;;;12.48;4.80;;;14.40;99.90;;;13.43;88.63;101677.84;4959080;28;20046;-80
2021/10/28 10:10:15;;;;;;;10.50;5.45;;;14.40;99.90;;;13.33;87.89;101664.19;4947481;28;20091;-80
2021/10/28 10:13:25;;;;;;;14.43;5.20;;;14.20;99.90;;;13.13;88.69;101660.56;4956369;28;20144;-80
2021/10/28 10:16:43;;;;;;;10.25;4.82;;;14.20;99.90;;;13.13;89.07;101657.94;4958258;28;20044;-79
2021/10/28 10:20:09;;;;;;;12.90;5.55;;;14.10;99.90;;;13.07;89.70;101652.03;4944810;28;20045;-80
2021/10/28 10:23:46;;;;;;;9.43;4.88;;;14.30;99.90;;;13.12;90.77;101658.84;4945129;28;20835;-80
2021/10/28 11:26:05;;;;;;;12.65;5.00;;;14.90;99.90;;;13.72;90.89;101616.56;4953416;28;20589;-80
2021/10/28 11:29:05;;;;;;;10.50;4.50;;;15.00;99.90;;;13.80;89.71;101618.88;4990617;28;20050;-80
2021/10/28 12:43:40;;;;;;;12.40;5.25;;;16.00;99.90;;;14.51;89.27;101515.69;4977582;28;20036;-78
2021/10/28 12:46:24;;;;;;;7.60;4.07;;;15.80;99.90;;;14.65;88.75;101612.22;4966928;28;20056;-79
2021/10/28 13:57:54;;;;;;;12.98;5.93;;;15.30;99.90;;;14.11;89.71;101528.25;4967992;28;20077;-80
2021/10/28 14:24:31;;;;;;;9.20;4.50;;;15.00;99.90;;;13.78;91.08;101456.63;4981035;28;20028;-80
2021/10/28 15:02:43;;;;;;;8.32;4.28;;;14.20;99.90;;;12.99;95.97;101492.88;4983554;28;22293;-77
2021/10/28 15:30:01;;;;;;;10.27;5.38;;;13.50;99.90;;;12.17;100.00;101418.94;4990922;28;20037;-78
2021/10/28 15:35:24;;;;;;;8.35;4.93;;;13.20;99.90;;;11.92;100.00;101408.53;4995390;28;20034;-78
2021/10/28 15:38:16;;;;;;;9.40;5.28;;;13.10;99.90;;;11.85;100.00;101402.63;4958746;28;20121;-78
2021/10/28 15:57:22;;;;;;;7.63;4.72;;;12.50;99.90;;;11.18;100.00;101348.16;4987744;28;20042;-77
2021/10/28 16:24:12;;;;;;;21.10;9.85;;;11.90;99.90;;;10.55;100.00;101311.06;4990441;28;20497;-77
2021/10/28 16:26:41;;;;;;;16.35;9.52;;;11.90;99.90;;;10.61;100.00;101319.56;4985351;28;22908;-77
2021/10/28 16:29:11;;;;;;;15.82;9.30;;;11.80;99.90;;;10.50;100.00;101307.75;4984213;28;20050;-77
2021/10/28 16:31:38;;;;;;;17.58;9.40;;;11.70;99.90;;;10.47;100.00;101306.06;4999446;28;20466;-77
2021/10/28 16:34:05;;;;;;;19.23;9.30;;;11.60;99.90;;;10.30;100.00;101285.59;4991512;28;20090;-77
2021/10/28 16:36:31;;;;;;;23.50;10.32;;;11.60;99.90;;;10.21;100.00;101289.41;4966822;28;20515;-78
2021/10/28 16:39:00;;;;;;;;;;;11.60;99.90;;;10.15;100.00;101287.00;4985197;28;20126;-78
2021/10/28 16:41:26;;;;;;;19.60;10.38;;;11.50;99.90;;;10.05;100.00;101277.72;4969175;28;19975;-77
2021/10/28 16:43:51;;;;;;;;;;;11.40;99.90;;;10.03;100.00;101285.66;4985386;28;20086;-77
2021/10/28 16:46:20;;;;;;;17.63;10.05;;;11.30;99.90;;;10.00;100.00;101277.00;4981156;28;20034;-77
2021/10/28 16:48:46;;;;;;;19.17;10.57;;;11.30;99.90;;;10.02;100.00;101289.22;4973541;28;20060;-77
2021/10/28 16:51:12;;;;;;;;;;;11.30;99.90;;;9.96;100.00;101286.81;4985245;28;20470;-77
2021/10/28 16:53:38;;;;;;;19.60;10.43;;;11.20;99.90;;;9.87;100.00;101276.59;4984591;28;19943;-77
2021/10/28 16:56:04;;;;;;;;;;;11.20;99.90;;;9.89;100.00;101285.28;5001281;28;20097;-78
2021/10/28 16:58:31;;;;;;;18.88;10.40;;;11.20;99.90;;;9.88;100.00;101288.84;4966311;28;19922;-77
2021/10/28 17:00:57;;;;;;;24.17;10.57;;;11.20;99.90;;;9.85;100.00;101288.94;4985531;28;20045;-77
2021/10/28 17:03:23;;;;;;;22.95;12.10;;;11.10;99.90;;;9.79;100.00;101279.50;4992744;28;20069;-77
2021/10/28 17:05:49;;;;;;;;;;;11.10;99.90;;;9.79;100.00;101279.50;4966232;28;20536;-78
2021/10/28 17:08:16;;;;;;;20.83;11.20;;;11.10;99.90;;;9.86;100.00;101288.03;4958584;28;19995;-77
2021/10/28 17:10:43;;;;;;;25.48;11.20;;;11.10;99.90;;;9.78;100.00;101279.53;4982572;28;20056;-77
2021/10/28 17:13:09;;;;;;;24.60;11.80;;;11.00;99.90;;;9.63;100.00;101268.66;4983654;28;20068;-77
2021/10/28 17:15:35;;;;;;;;;;;11.00;99.90;;;9.68;100.00;101275.53;4986127;28;20099;-77
2021/10/28 17:18:01;;;;;;;20.15;10.55;;;10.90;99.90;;;9.57;100.00;101263.59;4973505;28;19921;-77
2021/10/28 17:20:33;;;;;;;;;;;10.90;99.90;;;9.54;100.00;101262.81;4993271;28;20061;-78
2021/10/28 17:22:59;;;;;;;20.27;10.93;;;10.90;99.90;;;9.53;100.00;101269.00;4985288;28;20269;-77
2021/10/28 17:25:26;;;;;;;;;;;10.90;99.90;;;9.47;100.00;101256.91;4990278;28;20067;-78
2021/10/28 17:27:53;;;;;;;20.02;10.80;;;10.80;99.90;;;9.44;100.00;101265.78;4972837;28;19955;-77
2021/10/28 17:30:22;;;;;;;22.13;11.00;;;10.70;99.90;;;9.43;100.00;101253.53;4979405;28;20462;-77
2021/10/28 17:32:48;;;;;;;24.00;11.85;;;10.70;99.90;;;9.42;100.00;101267.59;4955437;28;20065;-77
2021/10/28 17:35:14;;;;;;;;;;;10.70;99.90;;;9.29;100.00;101262.78;4975211;28;20031;-77
2021/10/28 17:37:41;;;;;;;22.60;11.13;;;10.70;99.90;;;9.34;100.00;101271.38;4989174;28;20822;-77
2021/10/28 17:40:09;;;;;;;24.60;12.07;;;10.70;99.90;;;9.28;100.00;101261.06;4950341;28;20509;-77
2021/10/28 17:42:36;;;;;;;21.50;11.32;;;10.60;99.90;;;9.20;100.00;101254.31;4970152;28;20651;-77
2021/10/28 17:45:04;;;;;;;27.83;11.88;;;10.50;99.90;;;9.18;100.00;101257.91;4977013;28;20064;-77
2021/10/28 17:47:30;;;;;;;20.92;12.63;;;10.50;99.90;;;9.15;100.00;101247.47;4983895;28;20071;-77
2021/10/28 17:49:57;;;;;;;29.08;12.88;;;10.50;99.90;;;9.08;100.00;101249.44;5000719;28;20113;-77
2021/10/28 17:52:23;;;;;;;;;;;10.40;99.90;;;9.02;100.00;101247.00;4981319;28;20088;-77
2021/10/28 17:54:49;;;;;;;20.88;10.82;;;10.40;99.90;;;8.99;100.00;101240.06;4951098;28;19991;-77
2021/10/28 17:57:18;;;;;;;;;;;10.30;99.90;;;8.94;100.00;101238.50;4971661;28;20073;-77
2021/10/28 17:59:45;;;;;;;19.48;11.32;;;10.30;99.90;;;8.91;100.00;101235.97;4975200;28;19948;-77
2021/10/28 18:02:11;;;;;;;22.88;11.95;;;10.20;99.90;;;8.87;100.00;101239.59;4979816;28;20090;-77
2021/10/28 18:04:38;;;;;;;29.48;11.82;;;10.20;99.90;;;8.81;100.00;101235.38;4972599;28;20022;-77
2021/10/28 18:07:05;;;;;;;23.27;12.38;;;10.20;99.90;;;8.87;100.00;101247.47;4981809;28;20076;-77
2021/10/28 18:09:36;;;;;;;23.15;12.18;;;10.20;99.90;;;8.91;100.00;101249.97;4967529;28;20060;-77
2021/10/28 18:12:03;;;;;;;22.88;12.52;;;10.20;99.90;;;8.87;100.00;101247.47;4964959;28;20064;-78
2021/10/28 18:14:30;;;;;;;23.05;11.50;;;10.20;99.90;;;8.83;100.00;101237.09;4982418;28;20076;-77
2021/10/28 18:16:57;;;;;;;21.92;11.63;;;10.20;99.90;;;8.88;100.00;101239.56;4968976;28;20096;-77
2021/10/28 18:19:26;;;;;;;22.27;11.63;;;10.20;99.90;;;8.82;100.00;101230.09;4997031;28;20087;-77
2021/10/28 18:21:55;;;;;;;25.73;12.93;;;10.20;99.90;;;8.81;100.00;101227.50;4981642;28;20057;-77
2021/10/28 18:24:23;;;;;;;25.58;13.75;;;10.10;99.90;;;8.76;100.00;101222.41;4966446;28;20069;-78
2021/10/28 18:26:53;;;;;;;22.23;12.68;;;10.10;99.90;;;8.71;100.00;101215.59;4992435;28;20537;-77
2021/10/28 18:29:19;;;;;;;23.73;12.82;;;10.00;99.90;;;8.65;100.00;101210.53;4945643;28;20135;-77
2021/10/28 18:31:46;;;;;;;28.50;12.80;;;10.00;99.90;;;8.63;100.00;101213.19;4941547;28;20026;-78
2021/10/28 18:34:14;;;;;;;30.98;12.60;;;10.00;99.90;;;8.67;100.00;101209.56;4964509;28;20034;-78
2021/10/28 18:36:41;;;;;;;26.25;12.32;;;10.00;99.90;;;8.68;100.00;101215.69;4991254;28;20068;-77
2021/10/28 18:39:11;;;;;;;24.52;12.57;;;10.00;99.90;;;8.67;100.00;101209.56;4964464;28;20545;-77
2021/10/28 18:41:37;;;;;;;26.98;13.25;;;10.00;99.90;;;8.54;100.00;101198.59;4954975;28;20160;-78
2021/10/28 18:44:04;;;;;;;;;;;9.90;99.90;;;8.52;100.00;101196.94;4984050;28;20032;-77
2021/10/28 18:46:33;;;;;;;23.88;12.98;;;9.90;99.90;;;8.47;100.00;101188.34;4979634;28;20053;-78
2021/10/28 18:49:03;;;;;;;21.95;12.70;;;9.90;99.90;;;8.49;100.00;101186.50;4970352;28;20058;-78
2021/10/28 18:51:31;;;;;;;26.27;11.90;;;9.80;99.90;;;8.40;100.00;101180.66;4979610;28;20034;-77
2021/10/28 18:53:58;;;;;;;24.35;12.05;;;9.80;99.90;;;8.44;100.00;101194.53;4963366;28;20067;-78
2021/10/28 18:56:24;;;;;;;25.52;12.80;;;9.80;99.90;;;8.46;100.00;101181.34;4982612;28;20057;-78
2021/10/28 18:58:51;;;;;;;25.65;12.48;;;9.80;99.90;;;8.36;100.00;101168.50;4962552;28;20067;-78
2021/10/28 19:01:19;;;;;;;24.38;12.75;;;9.70;99.90;;;8.33;100.00;101163.31;4935732;28;20061;-78